createdAt,value
2023-12-13T00:01:18.928Z,87.40
2023-12-13T00:03:45.522Z,88.11
2023-12-13T00:06:12.048Z,88.56
2023-12-13T00:08:39.610Z,87.90
2023-12-13T00:11:07.176Z,87.86
2023-12-13T00:13:34.776Z,88.35
2023-12-13T00:16:02.352Z,88.59
2023-12-13T00:18:29.990Z,89.08
2023-12-13T00:20:57.531Z,88.72
2023-12-13T00:23:25.161Z,89.08
2023-12-13T00:25:53.892Z,89.40
2023-12-13T00:28:21.406Z,87.93
2023-12-13T00:30:48.362Z,87.25
2023-12-13T00:33:14.956Z,86.90
2023-12-13T00:35:41.660Z,87.52
2023-12-13T00:38:08.753Z,87.62
2023-12-13T00:40:36.367Z,87.69
2023-12-13T00:43:03.932Z,87.55
2023-12-13T00:45:30.461Z,88.21
2023-12-13T00:47:57.131Z,88.45
2023-12-13T00:50:24.727Z,88.16
2023-12-13T00:52:52.352Z,88.40
2023-12-13T00:55:18.962Z,87.92
2023-12-13T00:57:45.555Z,87.34
2023-12-13T01:00:13.097Z,87.05
2023-12-13T01:02:39.782Z,86.08
2023-12-13T01:05:07.294Z,86.64
2023-12-13T01:07:34.403Z,86.63
2023-12-13T01:10:01.115Z,87.52
2023-12-13T01:12:27.666Z,87.23
2023-12-13T01:14:54.654Z,86.62
2023-12-13T01:17:22.256Z,86.97
2023-12-13T01:19:48.916Z,86.44
2023-12-13T01:22:16.458Z,85.04
2023-12-13T01:24:44.034Z,86.31
2023-12-13T01:27:11.640Z,87.08
2023-12-13T01:29:39.248Z,86.48
2023-12-13T01:32:06.825Z,86.82
2023-12-13T01:34:34.520Z,86.34
2023-12-13T01:37:02.066Z,86.56
2023-12-13T01:39:29.607Z,86.94
2023-12-13T01:41:57.207Z,86.65
2023-12-13T01:44:23.804Z,86.49
2023-12-13T01:46:50.456Z,86.40
2023-12-13T01:49:18.113Z,85.94
2023-12-13T01:51:45.602Z,85.01
2023-12-13T01:54:12.254Z,81.85
2023-12-13T01:56:39.802Z,83.79
2023-12-13T01:59:07.500Z,85.23
2023-12-13T02:01:35.077Z,86.42
2023-12-13T02:04:02.583Z,87.08
2023-12-13T02:06:29.103Z,88.04
2023-12-13T02:08:55.648Z,87.31
2023-12-13T02:11:24.545Z,87.45
2023-12-13T02:13:52.978Z,86.49
2023-12-13T02:16:20.574Z,85.48
2023-12-13T02:18:48.232Z,85.67
2023-12-13T02:21:15.759Z,85.02
2023-12-13T02:23:43.307Z,85.50
2023-12-13T02:26:10.918Z,84.23
2023-12-13T02:28:37.479Z,85.37
2023-12-13T02:31:03.975Z,86.08
2023-12-13T02:33:30.797Z,86.03
2023-12-13T02:35:58.266Z,86.78
2023-12-13T02:38:25.967Z,86.14
2023-12-13T02:40:53.526Z,86.29
2023-12-13T02:43:21.048Z,86.49
2023-12-13T02:45:49.717Z,86.97
2023-12-13T02:48:17.366Z,87.05
2023-12-13T02:50:44.828Z,86.64
2023-12-13T02:53:11.334Z,85.74
2023-12-13T02:55:37.854Z,86.86
2023-12-13T02:58:04.628Z,86.93
2023-12-13T03:00:31.293Z,87.00
2023-12-13T03:02:58.261Z,86.74
2023-12-13T03:05:26.523Z,86.64
2023-12-13T03:07:54.205Z,86.90
2023-12-13T03:10:21.703Z,86.79
2023-12-13T03:12:49.243Z,86.53
2023-12-13T03:15:17.845Z,86.36
2023-12-13T03:17:45.496Z,86.26
2023-12-13T03:20:13.008Z,87.06
2023-12-13T03:22:40.636Z,86.92
2023-12-13T03:25:09.265Z,86.76
2023-12-13T03:27:36.450Z,86.74
2023-12-13T03:30:03.302Z,86.78
2023-12-13T03:32:29.822Z,87.72
2023-12-13T03:34:56.695Z,87.15
2023-12-13T03:37:24.242Z,87.05
2023-12-13T03:39:51.787Z,87.10
2023-12-13T03:42:18.421Z,86.88
2023-12-13T03:44:44.958Z,86.96
2023-12-13T03:47:11.577Z,86.94
2023-12-13T03:49:39.231Z,86.74
2023-12-13T03:52:06.744Z,86.58
2023-12-13T03:54:33.649Z,87.09
2023-12-13T03:57:00.183Z,86.82
2023-12-13T03:59:26.678Z,86.97
2023-12-13T04:01:54.152Z,87.25
2023-12-13T04:04:21.836Z,86.91
2023-12-13T04:06:49.265Z,87.13
2023-12-13T04:09:15.760Z,86.81
2023-12-13T04:11:42.441Z,86.44
2023-12-13T04:14:10.046Z,86.18
2023-12-13T04:16:37.694Z,86.28
2023-12-13T04:19:05.304Z,86.54
2023-12-13T04:21:32.841Z,85.75
2023-12-13T04:24:01.460Z,86.07
2023-12-13T04:26:29.035Z,86.40
2023-12-13T04:28:55.751Z,86.53
2023-12-13T04:31:23.333Z,86.66
2023-12-13T04:33:50.825Z,86.33
2023-12-13T04:36:18.396Z,86.38
2023-12-13T04:38:44.908Z,86.67
2023-12-13T04:41:11.578Z,86.21
2023-12-13T04:43:38.239Z,86.80
2023-12-13T04:46:05.758Z,87.11
2023-12-13T04:48:33.476Z,86.84
2023-12-13T04:51:00.965Z,86.48
2023-12-13T04:53:27.851Z,86.04
2023-12-13T04:55:54.435Z,86.44
2023-12-13T04:58:21.033Z,87.23
2023-12-13T05:00:48.028Z,87.76
2023-12-13T05:03:14.597Z,86.44
2023-12-13T05:05:41.509Z,83.63
2023-12-13T05:08:09.115Z,84.27
2023-12-13T05:10:36.735Z,85.77
2023-12-13T05:13:04.257Z,85.98
2023-12-13T05:15:31.847Z,86.34
2023-12-13T05:17:58.493Z,86.48
2023-12-13T05:20:26.081Z,85.76
2023-12-13T05:22:53.693Z,86.43
2023-12-13T05:25:20.246Z,84.93
2023-12-13T05:27:46.764Z,85.43
2023-12-13T05:30:13.321Z,86.30
2023-12-13T05:32:41.989Z,85.63
2023-12-13T05:35:08.908Z,86.11
2023-12-13T05:37:35.790Z,86.30
2023-12-13T05:40:02.646Z,86.09
2023-12-13T05:42:29.363Z,87.23
2023-12-13T05:44:55.956Z,88.06
2023-12-13T05:47:22.548Z,88.17
2023-12-13T05:49:49.152Z,88.07
2023-12-13T05:52:15.664Z,86.98
2023-12-13T05:54:42.195Z,87.44
2023-12-13T05:57:08.901Z,87.50
2023-12-13T05:59:36.516Z,88.03
2023-12-13T06:02:03.147Z,86.78
2023-12-13T06:04:30.043Z,85.88
2023-12-13T06:06:57.302Z,86.76
2023-12-13T06:09:24.856Z,87.96
2023-12-13T06:11:51.342Z,87.97
2023-12-13T06:14:17.813Z,87.44
2023-12-13T06:16:44.558Z,87.61
2023-12-13T06:19:11.101Z,87.78
2023-12-13T06:21:37.635Z,88.01
2023-12-13T06:24:04.388Z,88.72
2023-12-13T06:26:30.967Z,88.54
2023-12-13T06:28:59.599Z,88.29
2023-12-13T06:31:26.144Z,88.72
2023-12-13T06:33:52.658Z,88.33
2023-12-13T06:36:19.246Z,88.55
2023-12-13T06:38:45.753Z,88.56
2023-12-13T06:41:12.496Z,88.93
2023-12-13T06:43:39.125Z,89.22
2023-12-13T06:46:05.672Z,89.37
2023-12-13T06:48:32.226Z,89.05
2023-12-13T06:50:58.785Z,89.12
2023-12-13T06:53:25.350Z,89.38
2023-12-13T06:55:52.070Z,89.02
2023-12-13T06:58:19.694Z,89.03
2023-12-13T07:00:46.225Z,89.24
2023-12-13T07:03:12.800Z,88.66
2023-12-13T07:05:39.495Z,88.63
2023-12-13T07:08:06.058Z,88.15
2023-12-13T07:10:33.833Z,88.16
2023-12-13T07:13:01.208Z,88.03
2023-12-13T07:15:27.821Z,88.16
2023-12-13T07:17:54.345Z,88.54
2023-12-13T07:20:20.852Z,88.38
2023-12-13T07:22:48.570Z,87.75
2023-12-13T07:25:16.180Z,88.00
2023-12-13T07:27:43.749Z,86.78
2023-12-13T07:30:11.344Z,86.53
2023-12-13T07:32:39.261Z,86.72
2023-12-13T07:35:06.606Z,87.86
2023-12-13T07:37:34.168Z,88.24
2023-12-13T07:40:01.703Z,88.46
2023-12-13T07:42:29.304Z,88.28
2023-12-13T07:44:55.881Z,88.10
2023-12-13T07:47:22.393Z,87.91
2023-12-13T07:49:49.188Z,87.89
2023-12-13T07:52:16.718Z,87.98
2023-12-13T07:54:44.248Z,87.54
2023-12-13T07:57:11.850Z,87.17
2023-12-13T07:59:39.439Z,87.41
2023-12-13T08:02:06.024Z,87.50
2023-12-13T08:04:33.650Z,86.97
2023-12-13T08:07:00.575Z,87.36
2023-12-13T08:09:27.080Z,87.55
2023-12-13T08:11:53.570Z,87.39
2023-12-13T08:14:21.056Z,87.64
2023-12-13T08:16:48.607Z,87.54
2023-12-13T08:19:16.282Z,87.93
2023-12-13T08:21:43.763Z,88.54
2023-12-13T08:24:10.370Z,89.87
2023-12-13T08:26:36.928Z,91.46
2023-12-13T08:29:07.080Z,92.23
2023-12-13T08:31:35.470Z,92.34
2023-12-13T08:34:02.941Z,92.01
2023-12-13T08:36:30.346Z,92.03
2023-12-13T08:38:57.266Z,92.41
2023-12-13T08:41:24.509Z,93.47
2023-12-13T08:43:51.145Z,93.74
2023-12-13T08:46:18.763Z,92.90
2023-12-13T08:48:46.439Z,94.80
2023-12-13T08:51:13.862Z,95.40
2023-12-13T08:53:42.454Z,95.23
2023-12-13T08:56:10.059Z,95.49
2023-12-13T08:58:37.690Z,95.07
2023-12-13T09:01:05.282Z,94.42
2023-12-13T09:03:32.213Z,94.05
2023-12-13T09:05:59.427Z,94.14
2023-12-13T09:08:27.041Z,94.29
2023-12-13T09:10:54.001Z,93.82
2023-12-13T09:13:20.599Z,93.65
2023-12-13T09:15:47.159Z,93.55
2023-12-13T09:18:14.452Z,93.22
2023-12-13T09:20:42.255Z,92.98
2023-12-13T09:23:09.557Z,92.51
2023-12-13T09:25:37.169Z,92.58
2023-12-13T09:28:04.743Z,93.08
2023-12-13T09:30:31.409Z,92.99
2023-12-13T09:32:58.987Z,93.29
2023-12-13T09:35:26.580Z,92.96
2023-12-13T09:37:54.129Z,92.95
2023-12-13T09:40:21.734Z,93.17
2023-12-13T09:42:49.406Z,92.97
2023-12-13T09:45:16.862Z,92.86
2023-12-13T09:47:43.439Z,92.39
2023-12-13T09:50:10.069Z,91.88
2023-12-13T09:52:38.044Z,92.05
2023-12-13T09:55:06.214Z,92.04
2023-12-13T09:57:33.826Z,92.08
2023-12-13T10:00:00.415Z,91.16
2023-12-13T10:02:27.039Z,90.94
2023-12-13T10:04:54.662Z,91.23
2023-12-13T10:07:22.435Z,90.51
2023-12-13T10:09:49.830Z,90.51
2023-12-13T10:12:16.331Z,89.83
2023-12-13T10:14:43.989Z,90.04
2023-12-13T10:17:17.227Z,89.06
2023-12-13T10:19:47.301Z,88.64
2023-12-13T10:22:16.241Z,88.16
2023-12-13T10:24:43.423Z,87.59
2023-12-13T10:27:09.933Z,88.07
2023-12-13T10:29:36.474Z,88.38
2023-12-13T10:32:03.022Z,88.52
2023-12-13T10:34:29.585Z,87.50
2023-12-13T10:36:56.398Z,85.84
2023-12-13T10:39:23.978Z,85.80
2023-12-13T10:41:50.490Z,86.63
2023-12-13T10:44:17.065Z,84.43
2023-12-13T10:46:43.661Z,85.30
2023-12-13T10:49:10.180Z,85.96
2023-12-13T10:51:36.681Z,86.42
2023-12-13T10:54:03.542Z,85.81
2023-12-13T10:56:30.145Z,86.07
2023-12-13T10:58:56.838Z,86.15
2023-12-13T11:01:24.509Z,86.72
2023-12-13T11:03:51.973Z,86.88
2023-12-13T11:06:18.632Z,86.55
2023-12-13T11:08:46.143Z,87.00
2023-12-13T11:11:14.749Z,87.00
2023-12-13T11:13:42.358Z,87.22
2023-12-13T11:16:09.937Z,85.86
2023-12-13T11:18:37.542Z,87.08
2023-12-13T11:21:05.132Z,87.43
2023-12-13T11:23:32.838Z,87.17
2023-12-13T11:26:00.454Z,87.26
2023-12-13T11:28:27.011Z,82.74
2023-12-13T11:30:54.591Z,81.93
2023-12-13T11:33:23.435Z,82.39
2023-12-13T11:35:50.776Z,82.63
2023-12-13T11:38:19.717Z,83.99
2023-12-13T11:40:47.039Z,85.00
2023-12-13T11:43:15.918Z,86.28
2023-12-13T11:45:43.154Z,86.96
2023-12-13T11:48:10.805Z,87.35
2023-12-13T11:50:37.464Z,87.97
2023-12-13T11:53:04.019Z,87.82
2023-12-13T11:55:31.534Z,87.57
2023-12-13T11:57:59.117Z,87.85
2023-12-13T12:00:26.717Z,88.53
2023-12-13T12:02:55.378Z,89.21
2023-12-13T12:05:23.025Z,89.74
2023-12-13T12:07:50.650Z,89.27
2023-12-13T12:10:18.288Z,88.03
2023-12-13T12:12:45.880Z,86.33
2023-12-13T12:15:12.611Z,87.77
2023-12-13T12:17:40.379Z,89.09
2023-12-13T12:20:08.764Z,88.56
2023-12-13T12:22:35.615Z,88.93
2023-12-13T12:25:02.261Z,89.36
2023-12-13T12:27:28.904Z,88.56
2023-12-13T12:29:57.131Z,91.22
2023-12-13T12:32:24.874Z,92.50
2023-12-13T12:34:53.333Z,92.71
2023-12-13T12:37:20.567Z,92.71
2023-12-13T12:39:47.504Z,93.38
2023-12-13T12:42:15.147Z,91.88
2023-12-13T12:44:42.753Z,92.01
2023-12-13T12:47:10.418Z,92.01
2023-12-13T12:49:37.040Z,90.50
2023-12-13T12:52:03.573Z,92.67
2023-12-13T12:54:30.096Z,93.09
2023-12-13T12:56:56.580Z,93.73
2023-12-13T12:59:23.675Z,93.44
2023-12-13T13:01:50.977Z,92.62
2023-12-13T13:04:18.502Z,92.27
2023-12-13T13:06:46.042Z,90.43
2023-12-13T13:09:12.633Z,90.57
2023-12-13T13:11:39.660Z,89.67
2023-12-13T13:14:08.226Z,90.40
2023-12-13T13:16:35.126Z,91.35
2023-12-13T13:19:03.899Z,89.79
2023-12-13T13:21:31.552Z,90.17
2023-12-13T13:23:59.154Z,90.91
2023-12-13T13:26:25.846Z,90.18
2023-12-13T13:28:53.375Z,90.42
2023-12-13T13:31:20.969Z,90.85
2023-12-13T13:33:47.610Z,90.33
2023-12-13T13:36:14.188Z,89.83
2023-12-13T13:38:40.670Z,89.66
2023-12-13T13:41:07.185Z,89.12
2023-12-13T13:43:33.954Z,88.58
2023-12-13T13:46:01.485Z,88.90
2023-12-13T13:48:28.124Z,88.75
2023-12-13T13:50:55.688Z,88.29
2023-12-13T13:53:22.237Z,88.78
2023-12-13T13:55:48.822Z,88.65
2023-12-13T13:58:15.404Z,89.01
2023-12-13T14:00:41.926Z,89.27
2023-12-13T14:03:08.687Z,89.73
2023-12-13T14:05:37.314Z,89.77
2023-12-13T14:08:04.850Z,89.43
2023-12-13T14:10:32.443Z,89.25
2023-12-13T14:12:59.021Z,89.00
2023-12-13T14:15:26.687Z,89.20
2023-12-13T14:17:54.277Z,89.13
2023-12-13T14:20:23.293Z,88.74
2023-12-13T14:22:50.433Z,88.80
2023-12-13T14:25:17.964Z,88.49
2023-12-13T14:27:46.562Z,88.40
2023-12-13T14:30:14.237Z,88.44
2023-12-13T14:32:41.771Z,88.22
2023-12-13T14:35:09.435Z,88.38
2023-12-13T14:37:37.085Z,88.43
2023-12-13T14:40:04.558Z,88.09
2023-12-13T14:42:31.163Z,88.29
2023-12-13T14:44:57.720Z,88.61
2023-12-13T14:47:24.238Z,89.37
2023-12-13T14:49:50.824Z,89.57
2023-12-13T14:52:17.508Z,88.65
2023-12-13T14:54:45.106Z,89.53
2023-12-13T14:57:12.689Z,89.38
2023-12-13T14:59:39.275Z,88.32
2023-12-13T15:02:05.897Z,88.79
2023-12-13T15:04:33.489Z,88.98
2023-12-13T15:07:03.469Z,89.04
2023-12-13T15:09:31.678Z,88.41
2023-12-13T15:11:59.242Z,88.56
2023-12-13T15:14:25.796Z,88.77
2023-12-13T15:16:52.350Z,89.07
2023-12-13T15:19:18.996Z,89.13
2023-12-13T15:21:45.494Z,88.86
2023-12-13T15:24:11.987Z,89.29
2023-12-13T15:26:38.718Z,89.24
2023-12-13T15:29:05.568Z,89.15
2023-12-13T15:31:34.673Z,89.13
2023-12-13T15:34:01.660Z,89.18
2023-12-13T15:36:29.135Z,89.07
2023-12-13T15:38:55.768Z,89.69
2023-12-13T15:41:23.360Z,89.69
2023-12-13T15:43:51.043Z,90.06
2023-12-13T15:46:18.591Z,89.55
2023-12-13T15:48:46.147Z,89.46
2023-12-13T15:51:13.701Z,89.45
2023-12-13T15:53:40.222Z,89.21
2023-12-13T15:56:06.864Z,88.37
2023-12-13T15:58:34.527Z,88.50
2023-12-13T16:01:02.094Z,88.23
2023-12-13T16:03:28.696Z,88.12
2023-12-13T16:05:57.083Z,87.32
2023-12-13T16:08:24.482Z,88.31
2023-12-13T16:10:51.102Z,88.88
2023-12-13T16:13:18.065Z,88.66
2023-12-13T16:15:46.657Z,89.67
2023-12-13T16:18:13.318Z,90.20
2023-12-13T16:20:40.836Z,90.12
2023-12-13T16:23:07.460Z,90.47
2023-12-13T16:25:35.045Z,89.08
2023-12-13T16:28:01.860Z,88.92
2023-12-13T16:30:28.430Z,90.03
2023-12-13T16:32:55.005Z,90.47
2023-12-13T16:35:21.551Z,91.28
2023-12-13T16:37:48.094Z,91.50
2023-12-13T16:40:15.565Z,91.53
2023-12-13T16:42:42.172Z,91.24
2023-12-13T16:45:08.672Z,91.58
2023-12-13T16:47:35.210Z,91.14
2023-12-13T16:50:01.979Z,91.08
2023-12-13T16:52:29.548Z,91.29
2023-12-13T16:54:56.063Z,90.99
2023-12-13T16:57:22.576Z,91.22
2023-12-13T16:59:49.065Z,90.71
2023-12-13T17:02:15.916Z,91.04
2023-12-13T17:04:43.158Z,90.97
2023-12-13T17:07:11.041Z,88.68
2023-12-13T17:09:38.639Z,88.99
2023-12-13T17:12:06.246Z,89.74
2023-12-13T17:14:33.800Z,89.65
2023-12-13T17:17:01.496Z,89.97
2023-12-13T17:19:29.159Z,89.60
2023-12-13T17:21:56.668Z,89.73
2023-12-13T17:24:24.181Z,89.52
2023-12-13T17:26:51.132Z,89.40
2023-12-13T17:29:26.455Z,89.34
2023-12-13T17:32:01.172Z,88.57
2023-12-13T17:34:28.673Z,89.10
2023-12-13T17:36:56.234Z,88.65
2023-12-13T17:39:23.816Z,88.85
2023-12-13T17:41:50.418Z,88.82
2023-12-13T17:44:19.779Z,88.77
2023-12-13T17:46:48.641Z,88.84
2023-12-13T17:49:16.327Z,89.20
2023-12-13T17:51:43.797Z,88.21
2023-12-13T17:54:10.384Z,88.16
2023-12-13T17:56:37.989Z,88.36
2023-12-13T17:59:05.638Z,88.64
2023-12-13T18:01:33.181Z,88.26
2023-12-13T18:04:01.793Z,88.44
2023-12-13T18:06:29.385Z,87.36
2023-12-13T18:08:55.897Z,88.13
2023-12-13T18:11:22.530Z,87.70
2023-12-13T18:13:49.157Z,88.24
2023-12-13T18:16:16.744Z,88.39
2023-12-13T18:18:44.414Z,87.67
2023-12-13T18:21:11.906Z,88.11
2023-12-13T18:23:39.537Z,88.01
2023-12-13T18:26:07.175Z,87.51
2023-12-13T18:28:35.728Z,87.88
2023-12-13T18:31:02.465Z,87.51
2023-12-13T18:33:29.143Z,87.71
2023-12-13T18:35:56.455Z,87.21
2023-12-13T18:38:24.050Z,87.11
2023-12-13T18:40:51.711Z,87.68
2023-12-13T18:43:19.237Z,87.76
2023-12-13T18:45:45.831Z,87.78
2023-12-13T18:48:12.484Z,87.21
2023-12-13T18:50:40.027Z,87.02
2023-12-13T18:53:06.691Z,86.71
2023-12-13T18:55:34.281Z,87.21
2023-12-13T18:58:01.893Z,87.67
2023-12-13T19:00:28.605Z,86.93
2023-12-13T19:02:57.230Z,86.88
2023-12-13T19:05:23.885Z,87.22
2023-12-13T19:07:52.440Z,87.74
2023-12-13T19:10:20.090Z,87.50
2023-12-13T19:12:47.619Z,87.90
2023-12-13T19:15:15.192Z,87.50
2023-12-13T19:17:44.357Z,87.91
2023-12-13T19:20:12.471Z,87.59
2023-12-13T19:22:39.993Z,87.16
2023-12-13T19:25:07.556Z,87.03
2023-12-13T19:27:35.498Z,86.91
2023-12-13T19:30:02.743Z,86.75
2023-12-13T19:32:29.388Z,86.22
2023-12-13T19:34:56.464Z,86.54
2023-12-13T19:37:23.066Z,86.67
2023-12-13T19:39:49.586Z,86.56
2023-12-13T19:42:16.732Z,86.29
2023-12-13T19:44:44.345Z,86.77
2023-12-13T19:47:10.952Z,87.19
2023-12-13T19:49:38.554Z,86.59
2023-12-13T19:52:06.141Z,88.28
2023-12-13T19:54:33.737Z,88.14
2023-12-13T19:57:00.327Z,88.35
2023-12-13T19:59:26.959Z,87.29
2023-12-13T20:01:54.609Z,87.04
2023-12-13T20:04:22.136Z,87.12
2023-12-13T20:06:48.636Z,86.36
2023-12-13T20:09:15.146Z,86.01
2023-12-13T20:11:41.960Z,85.87
2023-12-13T20:14:09.568Z,85.60
2023-12-13T20:16:37.199Z,85.93
2023-12-13T20:19:04.858Z,86.80
2023-12-13T20:21:32.411Z,85.75
2023-12-13T20:24:01.035Z,86.16
2023-12-13T20:26:28.512Z,86.32
2023-12-13T20:28:55.093Z,86.07
2023-12-13T20:31:22.698Z,86.18
2023-12-13T20:33:49.300Z,85.83
2023-12-13T20:36:15.856Z,85.59
2023-12-13T20:38:42.392Z,85.37
2023-12-13T20:41:10.234Z,84.82
2023-12-13T20:43:37.217Z,84.82
2023-12-13T20:46:03.893Z,84.76
2023-12-13T20:48:32.933Z,85.89
2023-12-13T20:51:03.403Z,85.81
2023-12-13T20:53:29.895Z,85.38
2023-12-13T20:55:56.961Z,85.75
2023-12-13T20:58:24.622Z,85.53
2023-12-13T21:00:52.283Z,84.86
2023-12-13T21:03:19.228Z,84.66
2023-12-13T21:05:45.788Z,84.99
2023-12-13T21:08:12.332Z,84.88
2023-12-13T21:10:40.643Z,84.96
2023-12-13T21:13:08.260Z,85.16
2023-12-13T21:15:35.830Z,85.14
2023-12-13T21:18:03.585Z,84.86
2023-12-13T21:20:32.118Z,84.91
2023-12-13T21:23:02.100Z,84.83
2023-12-13T21:25:29.378Z,83.84
2023-12-13T21:27:56.838Z,83.80
2023-12-13T21:30:24.518Z,85.84
2023-12-13T21:32:51.194Z,86.14
2023-12-13T21:35:17.869Z,86.83
2023-12-13T21:37:44.494Z,85.44
2023-12-13T21:40:11.014Z,85.38
2023-12-13T21:42:38.504Z,87.09
2023-12-13T21:45:05.024Z,87.76
2023-12-13T21:47:31.705Z,88.23
2023-12-13T21:49:58.771Z,88.68
2023-12-13T21:52:25.285Z,88.92
2023-12-13T21:54:52.004Z,88.57
2023-12-13T21:57:19.012Z,88.59
2023-12-13T21:59:46.723Z,88.39
2023-12-13T22:02:14.335Z,88.45
2023-12-13T22:04:41.927Z,88.06
2023-12-13T22:07:08.498Z,88.69
2023-12-13T22:09:34.994Z,86.83
2023-12-13T22:12:01.522Z,87.62
2023-12-13T22:14:28.008Z,88.14
2023-12-13T22:16:54.545Z,88.62
2023-12-13T22:19:21.094Z,88.69
2023-12-13T22:21:47.998Z,89.29
2023-12-13T22:24:15.632Z,88.89
2023-12-13T22:26:42.579Z,88.85
2023-12-13T22:29:09.104Z,88.87
2023-12-13T22:31:35.717Z,88.36
2023-12-13T22:34:02.337Z,87.74
2023-12-13T22:36:28.920Z,87.44
2023-12-13T22:38:55.447Z,87.81
2023-12-13T22:41:23.919Z,87.21
2023-12-13T22:43:52.616Z,87.50
2023-12-13T22:46:20.095Z,87.27
2023-12-13T22:48:46.693Z,87.59
2023-12-13T22:51:14.310Z,88.40
2023-12-13T22:53:41.179Z,87.93
2023-12-13T22:56:07.706Z,88.38
2023-12-13T22:58:34.259Z,88.67
2023-12-13T23:01:01.924Z,88.73
2023-12-13T23:03:30.866Z,88.50
2023-12-13T23:05:58.113Z,88.78
2023-12-13T23:08:25.662Z,88.39
2023-12-13T23:10:53.281Z,88.39
2023-12-13T23:13:20.874Z,88.71
2023-12-13T23:15:48.425Z,88.04
2023-12-13T23:18:15.048Z,88.15
2023-12-13T23:20:42.638Z,88.20
2023-12-13T23:23:09.321Z,88.51
2023-12-13T23:25:36.838Z,88.12
2023-12-13T23:28:04.439Z,88.33
2023-12-13T23:30:32.082Z,88.36
2023-12-13T23:32:59.646Z,88.00
2023-12-13T23:35:27.338Z,88.02
2023-12-13T23:37:54.829Z,87.60
2023-12-13T23:40:22.396Z,86.92
2023-12-13T23:42:48.973Z,86.93
2023-12-13T23:45:15.572Z,87.10
2023-12-13T23:47:42.217Z,86.29
2023-12-13T23:50:09.989Z,86.65
2023-12-13T23:52:37.655Z,87.08
2023-12-13T23:55:04.985Z,87.01
2023-12-13T23:57:32.547Z,87.75
